createdAt,value
2023-05-18T00:00:35.481Z,100.00
2023-05-18T00:03:04.298Z,100.00
2023-05-18T00:05:34.510Z,100.00
2023-05-18T00:08:03.112Z,100.00
2023-05-18T00:10:31.746Z,100.00
2023-05-18T00:13:00.159Z,100.00
2023-05-18T00:15:28.790Z,100.00
2023-05-18T00:17:57.503Z,100.00
2023-05-18T00:20:26.814Z,100.00
2023-05-18T00:22:56.975Z,100.00
2023-05-18T00:25:25.369Z,100.00
2023-05-18T00:27:53.758Z,100.00
2023-05-18T00:30:24.148Z,100.00
2023-05-18T00:32:52.591Z,100.00
2023-05-18T00:35:21.103Z,100.00
2023-05-18T00:37:49.428Z,100.00
2023-05-18T00:40:19.530Z,100.00
2023-05-18T00:42:47.839Z,100.00
2023-05-18T00:45:16.368Z,100.00
2023-05-18T00:47:44.779Z,100.00
2023-05-18T00:50:13.421Z,100.00
2023-05-18T00:52:42.241Z,100.00
2023-05-18T00:55:13.414Z,100.00
2023-05-18T00:57:44.664Z,100.00
2023-05-18T01:00:14.375Z,100.00
2023-05-18T01:02:46.024Z,100.00
2023-05-18T01:05:14.875Z,100.00
2023-05-18T01:07:43.966Z,100.00
2023-05-18T01:10:13.520Z,100.00
2023-05-18T01:12:49.491Z,100.00
2023-05-18T01:15:20.666Z,100.00
2023-05-18T01:18:05.265Z,100.00
2023-05-18T01:20:39.223Z,100.00
2023-05-18T01:23:42.238Z,100.00
2023-05-18T01:26:17.265Z,100.00
2023-05-18T01:28:47.604Z,100.00
2023-05-18T01:31:16.627Z,100.00
2023-05-18T01:33:45.284Z,100.00
2023-05-18T01:36:13.789Z,100.00
2023-05-18T01:38:44.375Z,100.00
2023-05-18T01:41:21.709Z,100.00
2023-05-18T01:43:57.368Z,100.00
2023-05-18T01:46:38.073Z,100.00
2023-05-18T01:49:15.411Z,100.00
2023-05-18T01:51:47.291Z,100.00
2023-05-18T01:54:23.381Z,100.00
2023-05-18T01:56:56.631Z,100.00
2023-05-18T01:59:25.242Z,100.00
2023-05-18T02:01:59.462Z,100.00
2023-05-18T02:04:28.397Z,100.00
2023-05-18T02:06:56.836Z,100.00
2023-05-18T02:09:25.140Z,100.00
2023-05-18T02:11:55.002Z,100.00
2023-05-18T02:14:23.307Z,100.00
2023-05-18T02:16:53.252Z,100.00
2023-05-18T02:19:22.087Z,100.00
2023-05-18T02:21:50.429Z,100.00
2023-05-18T02:24:19.057Z,100.00
2023-05-18T02:26:47.353Z,100.00
2023-05-18T02:29:17.063Z,100.00
2023-05-18T02:31:45.594Z,100.00
2023-05-18T02:34:15.614Z,100.00
2023-05-18T02:36:43.932Z,100.00
2023-05-18T02:39:12.533Z,100.00
2023-05-18T02:41:40.790Z,100.00
2023-05-18T02:44:09.087Z,100.00
2023-05-18T02:46:38.840Z,100.00
2023-05-18T02:49:07.232Z,100.00
2023-05-18T02:51:36.118Z,100.00
2023-05-18T02:54:04.486Z,100.00
2023-05-18T02:56:32.975Z,100.00
2023-05-18T02:59:01.382Z,100.00
2023-05-18T03:01:29.859Z,100.00
2023-05-18T03:03:59.756Z,100.00
2023-05-18T03:06:30.524Z,100.00
2023-05-18T03:08:59.051Z,100.00
2023-05-18T03:11:27.640Z,100.00
2023-05-18T03:13:56.049Z,100.00
2023-05-18T03:16:28.577Z,100.00
2023-05-18T03:18:59.282Z,100.00
2023-05-18T03:21:36.161Z,100.00
2023-05-18T03:24:05.127Z,100.00
2023-05-18T03:26:33.426Z,100.00
2023-05-18T03:29:02.281Z,100.00
2023-05-18T03:31:30.827Z,100.00
2023-05-18T03:33:59.180Z,100.00
2023-05-18T03:36:29.420Z,100.00
2023-05-18T03:38:57.711Z,100.00
2023-05-18T03:41:26.196Z,100.00
2023-05-18T03:43:54.533Z,100.00
2023-05-18T03:46:22.970Z,100.00
2023-05-18T03:48:51.547Z,100.00
2023-05-18T03:51:19.840Z,100.00
2023-05-18T03:53:52.456Z,100.00
2023-05-18T03:56:21.243Z,100.00
2023-05-18T03:58:51.538Z,100.00
2023-05-18T04:01:20.008Z,100.00
2023-05-18T04:03:48.398Z,100.00
2023-05-18T04:06:16.789Z,100.00
2023-05-18T04:08:46.400Z,100.00
2023-05-18T04:11:16.210Z,100.00
2023-05-18T04:13:44.589Z,100.00
2023-05-18T04:16:13.784Z,100.00
2023-05-18T04:18:43.243Z,100.00
2023-05-18T04:21:12.008Z,100.00
2023-05-18T04:23:40.969Z,100.00
2023-05-18T04:26:09.395Z,100.00
2023-05-18T04:28:39.209Z,100.00
2023-05-18T04:31:07.474Z,100.00
2023-05-18T04:33:35.893Z,100.00
2023-05-18T04:36:05.143Z,100.00
2023-05-18T04:38:35.620Z,100.00
2023-05-18T04:41:06.780Z,100.00
2023-05-18T04:43:36.713Z,100.00
2023-05-18T04:46:07.538Z,100.00
2023-05-18T04:48:36.498Z,100.00
2023-05-18T04:51:06.349Z,100.00
2023-05-18T04:53:34.785Z,100.00
2023-05-18T04:56:03.453Z,100.00
2023-05-18T04:58:31.927Z,100.00
2023-05-18T05:01:00.289Z,100.00
2023-05-18T05:03:30.359Z,100.00
2023-05-18T05:05:58.803Z,100.00
2023-05-18T05:08:27.137Z,100.00
2023-05-18T05:10:55.617Z,100.00
2023-05-18T05:13:23.988Z,100.00
2023-05-18T05:15:52.316Z,100.00
2023-05-18T05:18:20.739Z,100.00
2023-05-18T05:20:51.746Z,100.00
2023-05-18T05:23:20.167Z,100.00
2023-05-18T05:25:48.488Z,100.00
2023-05-18T05:28:16.900Z,100.00
2023-05-18T05:30:45.192Z,100.00
2023-05-18T05:33:13.704Z,100.00
2023-05-18T05:35:42.170Z,100.00
2023-05-18T05:38:12.044Z,100.00
2023-05-18T05:40:40.443Z,100.00
2023-05-18T05:43:08.845Z,100.00
2023-05-18T05:45:37.246Z,100.00
2023-05-18T05:48:05.865Z,100.00
2023-05-18T05:50:34.343Z,100.00
2023-05-18T05:53:02.898Z,100.00
2023-05-18T05:55:32.920Z,100.00
2023-05-18T05:58:01.325Z,100.00
2023-05-18T06:00:29.723Z,100.00
2023-05-18T06:02:59.013Z,100.00
2023-05-18T06:05:27.484Z,100.00
2023-05-18T06:07:56.465Z,100.00
2023-05-18T06:10:24.990Z,100.00
2023-05-18T06:12:54.740Z,100.00
2023-05-18T06:15:23.185Z,100.00
2023-05-18T06:17:51.630Z,100.00
2023-05-18T06:20:20.117Z,100.00
2023-05-18T06:22:48.737Z,100.00
2023-05-18T06:25:17.787Z,100.00
2023-05-18T06:27:47.375Z,94.82
2023-05-18T06:30:17.438Z,94.47
2023-05-18T06:32:45.899Z,96.03
2023-05-18T06:35:14.269Z,96.14
2023-05-18T06:37:43.453Z,99.44
2023-05-18T06:40:13.237Z,100.00
2023-05-18T06:42:41.553Z,100.00
2023-05-18T06:45:10.397Z,100.00
2023-05-18T06:47:40.277Z,100.00
2023-05-18T06:50:09.353Z,100.00
2023-05-18T06:52:37.595Z,98.32
2023-05-18T06:55:07.761Z,99.77
2023-05-18T06:57:36.076Z,97.09
2023-05-18T07:00:07.492Z,92.43
2023-05-18T07:02:36.185Z,90.22
2023-05-18T07:05:09.362Z,88.83
2023-05-18T07:07:37.960Z,85.74
2023-05-18T07:10:07.696Z,84.09
2023-05-18T07:12:36.054Z,84.72
2023-05-18T07:15:04.532Z,82.17
2023-05-18T07:17:32.925Z,79.37
2023-05-18T07:20:01.257Z,76.24
2023-05-18T07:22:31.002Z,82.64
2023-05-18T07:25:00.887Z,80.61
2023-05-18T07:27:29.392Z,79.31
2023-05-18T07:29:57.707Z,78.93
2023-05-18T07:32:26.036Z,76.47
2023-05-18T07:34:54.259Z,75.14
2023-05-18T07:37:23.773Z,74.25
2023-05-18T07:39:53.540Z,71.69
2023-05-18T07:42:21.863Z,69.94
2023-05-18T07:44:50.153Z,68.21
2023-05-18T07:47:18.435Z,67.13
2023-05-18T07:49:46.718Z,68.47
2023-05-18T07:52:15.211Z,65.67
2023-05-18T07:54:43.666Z,66.46
2023-05-18T07:57:13.388Z,65.35
2023-05-18T07:59:41.774Z,64.90
2023-05-18T08:02:10.101Z,68.55
2023-05-18T08:04:38.509Z,68.95
2023-05-18T08:07:06.870Z,65.64
2023-05-18T08:09:35.228Z,63.28
2023-05-18T08:12:03.649Z,66.62
2023-05-18T08:14:33.480Z,68.68
2023-05-18T08:17:01.843Z,70.74
2023-05-18T08:19:30.285Z,68.75
2023-05-18T08:21:58.611Z,66.55
2023-05-18T08:24:27.013Z,67.04
2023-05-18T08:26:55.279Z,65.86
2023-05-18T08:29:23.559Z,66.86
2023-05-18T08:31:53.519Z,70.06
2023-05-18T08:34:22.147Z,67.19
2023-05-18T08:36:50.532Z,68.70
2023-05-18T08:39:18.846Z,68.53
2023-05-18T08:41:56.615Z,70.25
2023-05-18T08:44:31.011Z,69.17
2023-05-18T08:47:01.756Z,69.78
2023-05-18T08:49:32.614Z,72.31
2023-05-18T08:52:05.103Z,75.06
2023-05-18T08:54:34.871Z,76.80
2023-05-18T08:57:05.316Z,78.51
2023-05-18T08:59:38.053Z,77.82
2023-05-18T09:02:07.959Z,76.57
2023-05-18T09:04:37.369Z,78.14
2023-05-18T09:07:07.435Z,77.64
2023-05-18T09:09:37.165Z,77.13
2023-05-18T09:12:07.286Z,74.78
2023-05-18T09:14:35.716Z,73.03
2023-05-18T09:17:04.074Z,69.21
2023-05-18T09:19:33.885Z,67.58
2023-05-18T09:22:02.382Z,68.18
2023-05-18T09:24:31.147Z,67.94
2023-05-18T09:26:59.498Z,66.32
2023-05-18T09:29:27.922Z,66.98
2023-05-18T09:31:56.756Z,68.05
2023-05-18T09:34:25.086Z,67.65
2023-05-18T09:36:57.142Z,69.14
2023-05-18T09:39:25.518Z,68.35
2023-05-18T09:41:57.287Z,67.36
2023-05-18T09:44:33.066Z,68.47
2023-05-18T09:47:01.718Z,72.12
2023-05-18T09:49:31.035Z,76.97
2023-05-18T09:52:01.288Z,84.31
2023-05-18T09:54:30.074Z,88.67
2023-05-18T09:57:10.457Z,92.39
2023-05-18T09:59:39.986Z,88.90
2023-05-18T10:02:09.083Z,87.99
2023-05-18T10:04:39.020Z,81.93
2023-05-18T10:07:15.666Z,85.80
2023-05-18T10:09:46.665Z,83.61
2023-05-18T10:12:16.560Z,84.37
2023-05-18T10:14:46.047Z,84.34
2023-05-18T10:17:16.267Z,84.60
2023-05-18T10:19:46.470Z,82.12
2023-05-18T10:22:18.590Z,78.15
2023-05-18T10:24:52.525Z,72.95
2023-05-18T10:27:25.762Z,73.39
2023-05-18T10:29:55.269Z,71.20
2023-05-18T10:32:25.555Z,69.54
2023-05-18T10:34:54.914Z,70.18
2023-05-18T10:37:26.740Z,67.58
2023-05-18T10:39:57.367Z,62.15
2023-05-18T10:42:27.512Z,62.37
2023-05-18T10:44:57.884Z,61.85
2023-05-18T10:47:26.675Z,59.41
2023-05-18T10:49:56.202Z,59.27
2023-05-18T10:52:31.942Z,59.79
2023-05-18T10:55:01.185Z,58.71
2023-05-18T10:57:35.921Z,59.28
2023-05-18T11:00:07.847Z,54.78
2023-05-18T11:02:36.496Z,53.16
2023-05-18T11:05:07.479Z,52.18
2023-05-18T11:07:37.875Z,49.15
2023-05-18T11:10:11.644Z,51.34
2023-05-18T11:12:41.815Z,47.20
2023-05-18T11:15:11.031Z,50.67
2023-05-18T11:17:39.501Z,59.21
2023-05-18T11:20:15.611Z,58.27
2023-05-18T11:22:50.309Z,61.24
2023-05-18T11:25:40.657Z,61.12
2023-05-18T11:28:10.898Z,63.96
2023-05-18T11:30:51.212Z,65.97
2023-05-18T11:33:24.919Z,67.59
2023-05-18T11:35:57.570Z,65.88
2023-05-18T11:38:43.739Z,68.35
2023-05-18T11:41:29.283Z,70.51
2023-05-18T11:44:22.331Z,72.43
2023-05-18T11:46:56.485Z,72.85
2023-05-18T11:49:26.687Z,73.96
2023-05-18T11:52:18.480Z,74.70
2023-05-18T11:54:52.356Z,82.74
2023-05-18T11:57:22.249Z,89.89
2023-05-18T11:59:57.179Z,99.88
2023-05-18T12:02:27.472Z,100.00
2023-05-18T12:04:58.558Z,100.00
2023-05-18T12:07:28.868Z,96.45
2023-05-18T12:10:01.908Z,92.56
2023-05-18T12:12:30.526Z,91.05
2023-05-18T12:15:00.063Z,94.11
2023-05-18T12:17:40.466Z,100.00
2023-05-18T12:20:28.549Z,100.00
2023-05-18T12:22:57.471Z,100.00
2023-05-18T12:25:28.345Z,100.00
2023-05-18T12:27:57.974Z,100.00
2023-05-18T12:30:35.298Z,100.00
2023-05-18T12:33:16.941Z,100.00
2023-05-18T12:35:45.333Z,100.00
2023-05-18T12:38:13.666Z,100.00
2023-05-18T12:40:48.818Z,100.00
2023-05-18T12:43:17.797Z,100.00
2023-05-18T12:45:46.818Z,97.69
2023-05-18T12:48:15.649Z,97.83
2023-05-18T12:50:48.113Z,93.20
2023-05-18T12:53:16.658Z,92.85
2023-05-18T12:55:46.370Z,100.00
2023-05-18T12:58:17.112Z,100.00
2023-05-18T13:00:47.261Z,83.42
2023-05-18T13:03:17.496Z,86.70
2023-05-18T13:05:47.120Z,79.89
2023-05-18T13:08:18.196Z,82.95
2023-05-18T13:10:55.219Z,80.40
2023-05-18T13:13:29.927Z,77.27
2023-05-18T13:15:59.816Z,79.74
2023-05-18T13:18:29.344Z,75.79
2023-05-18T13:20:58.813Z,75.34
2023-05-18T13:23:32.588Z,74.80
2023-05-18T13:26:02.424Z,78.34
2023-05-18T13:28:31.379Z,75.30
2023-05-18T13:30:59.631Z,74.46
2023-05-18T13:33:27.952Z,76.09
2023-05-18T13:35:56.364Z,76.42
2023-05-18T13:38:24.732Z,75.53
2023-05-18T13:40:53.118Z,72.96
2023-05-18T13:43:22.807Z,73.34
2023-05-18T13:45:51.153Z,72.06
2023-05-18T13:48:19.735Z,73.96
2023-05-18T13:50:48.117Z,71.06
2023-05-18T13:53:16.518Z,69.33
2023-05-18T13:55:44.782Z,71.12
2023-05-18T13:58:13.073Z,67.97
2023-05-18T14:00:42.812Z,70.61
2023-05-18T14:03:11.532Z,69.89
2023-05-18T14:05:40.772Z,71.79
2023-05-18T14:08:09.129Z,68.77
2023-05-18T14:10:37.370Z,76.04
2023-05-18T14:13:06.085Z,72.42
2023-05-18T14:15:34.363Z,68.14
2023-05-18T14:18:04.216Z,71.70
2023-05-18T14:20:33.037Z,70.39
2023-05-18T14:23:03.664Z,70.11
2023-05-18T14:25:32.839Z,70.26
2023-05-18T14:28:01.176Z,68.65
2023-05-18T14:30:29.660Z,69.59
2023-05-18T14:32:58.386Z,70.00
2023-05-18T14:35:28.193Z,68.81
2023-05-18T14:37:56.661Z,70.69
2023-05-18T14:40:24.949Z,70.81
2023-05-18T14:42:53.912Z,68.47
2023-05-18T14:45:22.457Z,71.03
2023-05-18T14:47:50.802Z,70.02
2023-05-18T14:50:19.281Z,70.22
2023-05-18T14:52:48.951Z,69.91
2023-05-18T14:55:17.441Z,70.45
2023-05-18T14:57:46.066Z,69.57
2023-05-18T15:00:15.517Z,68.39
2023-05-18T15:02:43.890Z,70.32
2023-05-18T15:05:12.559Z,69.69
2023-05-18T15:07:40.899Z,72.83
2023-05-18T15:10:11.659Z,71.62
2023-05-18T15:12:40.083Z,74.99
2023-05-18T15:15:09.653Z,69.66
2023-05-18T15:17:38.089Z,74.70
2023-05-18T15:20:07.744Z,70.93
2023-05-18T15:22:36.224Z,71.87
2023-05-18T15:25:06.013Z,69.80
2023-05-18T15:27:36.250Z,70.10
2023-05-18T15:30:11.277Z,68.98
2023-05-18T15:32:39.749Z,70.42
2023-05-18T15:35:09.139Z,73.13
2023-05-18T15:37:37.639Z,69.47
2023-05-18T15:40:06.645Z,69.41
2023-05-18T15:42:36.413Z,67.70
2023-05-18T15:45:05.214Z,68.88
2023-05-18T15:47:33.650Z,68.95
2023-05-18T15:50:02.018Z,68.62
2023-05-18T15:52:30.430Z,69.25
2023-05-18T15:54:58.884Z,69.44
2023-05-18T15:57:27.308Z,69.65
2023-05-18T15:59:57.055Z,70.05
2023-05-18T16:02:26.021Z,69.25
2023-05-18T16:04:54.457Z,71.45
2023-05-18T16:07:22.793Z,71.24
2023-05-18T16:09:51.199Z,71.04
2023-05-18T16:12:19.608Z,75.32
2023-05-18T16:14:47.989Z,71.92
2023-05-18T16:17:17.754Z,73.91
2023-05-18T16:19:46.387Z,73.40
2023-05-18T16:22:14.718Z,72.91
2023-05-18T16:24:43.477Z,72.01
2023-05-18T16:27:11.810Z,73.09
2023-05-18T16:29:41.554Z,72.35
2023-05-18T16:32:09.856Z,72.94
2023-05-18T16:34:39.581Z,73.85
2023-05-18T16:37:07.875Z,73.23
2023-05-18T16:39:36.193Z,73.66
2023-05-18T16:42:04.613Z,71.95
2023-05-18T16:44:33.124Z,81.82
2023-05-18T16:47:01.578Z,73.83
2023-05-18T16:49:29.867Z,73.04
2023-05-18T16:51:59.544Z,75.25
2023-05-18T16:54:27.882Z,72.50
2023-05-18T16:56:56.652Z,74.06
2023-05-18T16:59:25.143Z,71.40
2023-05-18T17:01:53.617Z,71.93
2023-05-18T17:04:22.148Z,71.55
2023-05-18T17:06:50.447Z,71.73
2023-05-18T17:09:21.116Z,72.13
2023-05-18T17:11:49.497Z,72.80
2023-05-18T17:14:18.626Z,73.43
2023-05-18T17:16:47.447Z,75.24
2023-05-18T17:19:15.774Z,70.95
2023-05-18T17:21:44.082Z,69.62
2023-05-18T17:24:12.361Z,70.21
2023-05-18T17:26:42.068Z,70.02
2023-05-18T17:29:10.434Z,70.29
2023-05-18T17:31:38.822Z,69.95
2023-05-18T17:34:07.193Z,72.78
2023-05-18T17:36:35.769Z,72.01
2023-05-18T17:39:04.608Z,72.28
2023-05-18T17:41:33.338Z,72.61
2023-05-18T17:44:03.207Z,71.59
2023-05-18T17:46:31.888Z,72.15
2023-05-18T17:49:02.191Z,72.08
2023-05-18T17:51:30.496Z,72.92
2023-05-18T17:53:58.789Z,72.50
2023-05-18T17:56:28.316Z,72.45
2023-05-18T17:58:58.694Z,72.40
2023-05-18T18:01:29.087Z,72.73
2023-05-18T18:03:57.730Z,73.21
2023-05-18T18:06:26.801Z,72.36
2023-05-18T18:08:57.385Z,71.07
2023-05-18T18:11:27.086Z,71.77
2023-05-18T18:13:55.653Z,71.74
2023-05-18T18:16:24.499Z,72.99
2023-05-18T18:18:54.265Z,73.72
2023-05-18T18:21:22.651Z,72.83
2023-05-18T18:23:51.032Z,72.77
2023-05-18T18:26:19.446Z,73.71
2023-05-18T18:28:47.771Z,74.22
2023-05-18T18:31:16.390Z,74.59
2023-05-18T18:33:47.744Z,73.24
2023-05-18T18:36:18.034Z,75.92
2023-05-18T18:38:46.379Z,72.71
2023-05-18T18:41:17.405Z,73.35
2023-05-18T18:43:45.906Z,72.30
2023-05-18T18:46:14.400Z,72.35
2023-05-18T18:48:42.886Z,72.84
2023-05-18T18:51:11.234Z,72.20
2023-05-18T18:53:41.164Z,71.61
2023-05-18T18:56:09.553Z,71.85
2023-05-18T18:58:37.971Z,71.80
2023-05-18T19:01:06.244Z,71.03
2023-05-18T19:03:35.434Z,71.17
2023-05-18T19:06:03.911Z,69.88
2023-05-18T19:08:32.815Z,70.90
2023-05-18T19:11:02.540Z,72.19
2023-05-18T19:13:30.817Z,72.14
2023-05-18T19:15:59.580Z,72.95
2023-05-18T19:18:27.976Z,72.53
2023-05-18T19:20:56.319Z,72.66
2023-05-18T19:23:24.678Z,71.61
2023-05-18T19:25:54.858Z,72.34
2023-05-18T19:28:24.769Z,72.50
2023-05-18T19:30:53.751Z,72.31
2023-05-18T19:33:22.046Z,74.55
2023-05-18T19:35:51.765Z,73.23
2023-05-18T19:38:20.041Z,72.40
2023-05-18T19:40:48.289Z,73.51
2023-05-18T19:43:17.259Z,75.09
2023-05-18T19:45:47.665Z,75.89
2023-05-18T19:48:17.632Z,76.45
2023-05-18T19:50:45.984Z,77.77
2023-05-18T19:53:14.316Z,80.57
2023-05-18T19:55:42.802Z,81.33
2023-05-18T19:58:11.217Z,83.04
2023-05-18T20:00:41.441Z,82.73
2023-05-18T20:03:11.222Z,84.29
2023-05-18T20:05:39.709Z,84.90
2023-05-18T20:08:10.169Z,85.40
2023-05-18T20:10:38.503Z,84.63
2023-05-18T20:13:06.987Z,83.73
2023-05-18T20:15:37.296Z,81.25
2023-05-18T20:18:06.942Z,80.88
2023-05-18T20:20:36.897Z,77.51
2023-05-18T20:23:06.922Z,77.04
2023-05-18T20:25:36.540Z,75.96
2023-05-18T20:28:07.507Z,75.42
2023-05-18T20:30:36.512Z,75.43
2023-05-18T20:33:05.419Z,74.65
2023-05-18T20:35:34.522Z,74.18
2023-05-18T20:38:04.797Z,74.53
2023-05-18T20:40:33.719Z,74.60
2023-05-18T20:43:02.452Z,72.06
2023-05-18T20:45:31.506Z,73.76
2023-05-18T20:48:00.497Z,73.18
2023-05-18T20:50:29.289Z,72.11
2023-05-18T20:52:57.734Z,71.43
2023-05-18T20:55:27.713Z,71.84
2023-05-18T20:57:56.060Z,72.92
2023-05-18T21:00:24.536Z,72.13
2023-05-18T21:02:53.787Z,72.30
2023-05-18T21:05:23.439Z,71.13
2023-05-18T21:07:53.707Z,68.90
2023-05-18T21:10:22.087Z,69.02
2023-05-18T21:12:51.832Z,69.18
2023-05-18T21:15:20.099Z,70.39
2023-05-18T21:17:48.450Z,70.51
2023-05-18T21:20:16.739Z,72.82
2023-05-18T21:22:44.998Z,73.90
2023-05-18T21:25:13.335Z,76.20
2023-05-18T21:27:41.795Z,76.40
2023-05-18T21:30:13.610Z,74.77
2023-05-18T21:32:43.724Z,74.92
2023-05-18T21:35:12.062Z,76.84
2023-05-18T21:37:40.392Z,77.76
2023-05-18T21:40:09.947Z,78.14
2023-05-18T21:42:44.982Z,79.14
2023-05-18T21:45:15.032Z,80.00
2023-05-18T21:47:43.427Z,80.50
2023-05-18T21:50:12.469Z,82.23
2023-05-18T21:52:40.733Z,80.80
2023-05-18T21:55:10.336Z,82.22
2023-05-18T21:57:38.734Z,83.56
2023-05-18T22:00:08.782Z,86.54
2023-05-18T22:02:38.739Z,85.19
2023-05-18T22:05:08.934Z,85.00
2023-05-18T22:07:37.279Z,83.81
2023-05-18T22:10:06.374Z,84.06
2023-05-18T22:12:34.712Z,87.22
2023-05-18T22:15:03.082Z,89.27
2023-05-18T22:17:31.571Z,89.17
2023-05-18T22:20:01.290Z,91.85
2023-05-18T22:22:30.925Z,93.76
2023-05-18T22:24:59.396Z,97.84
2023-05-18T22:27:27.867Z,100.00
2023-05-18T22:29:56.278Z,100.00
2023-05-18T22:32:24.732Z,100.00
2023-05-18T22:34:53.754Z,100.00
2023-05-18T22:37:23.433Z,97.99
2023-05-18T22:39:51.765Z,99.50
2023-05-18T22:42:20.041Z,98.56
2023-05-18T22:44:48.281Z,99.56
2023-05-18T22:47:20.193Z,97.53
2023-05-18T22:49:49.413Z,99.27
2023-05-18T22:52:18.013Z,99.67
2023-05-18T22:54:47.936Z,97.04
2023-05-18T22:57:16.219Z,96.40
2023-05-18T22:59:44.487Z,94.26
2023-05-18T23:02:12.999Z,94.93
2023-05-18T23:04:41.387Z,92.98
2023-05-18T23:07:09.786Z,93.14
2023-05-18T23:09:39.949Z,93.34
2023-05-18T23:12:11.782Z,91.47
2023-05-18T23:14:40.103Z,88.95
2023-05-18T23:17:08.841Z,88.28
2023-05-18T23:19:37.221Z,87.34
2023-05-18T23:22:05.826Z,87.97
2023-05-18T23:24:34.226Z,90.39
2023-05-18T23:27:02.717Z,91.15
2023-05-18T23:29:32.517Z,88.44
2023-05-18T23:32:00.987Z,86.39
2023-05-18T23:34:31.205Z,87.54
2023-05-18T23:37:03.924Z,86.44
2023-05-18T23:39:33.102Z,86.36
2023-05-18T23:42:02.282Z,86.21
2023-05-18T23:44:32.738Z,83.43
2023-05-18T23:47:01.855Z,86.91
2023-05-18T23:49:31.171Z,89.36
2023-05-18T23:52:03.549Z,91.36
2023-05-18T23:54:32.308Z,94.03
2023-05-18T23:57:01.125Z,93.70
2023-05-18T23:59:30.004Z,95.67
